sim
Sign-in with your pilot id or email,
or register
Callsign
Passwort

Schedule Details

Flight Number: DLH2396 (2)
Departure: Munich Airport (EDDM) at 10:40
Arrival: Basel Mulhouse-Freiburg EuroAirport (LFSB) at 11:35
Route: Lufthansa Passenger Schedule. Enter filed route here before submitting Pirep.

Weather Information
Getting current METAR information for EDDM 221420Z VRB03KT 9999 FEW040 24/14 Q1011 NOSIG
Getting current METAR information for LFSB 221400Z 27003KT 220V310 9999 FEW040 FEW043CB BKN120 25/14 Q1011 NOSIG

Schedule Frequency

Route Map